createdAt,value
2022-11-20T00:01:29.886Z,99920.56
2022-11-20T00:03:58.873Z,99935.19
2022-11-20T00:06:27.237Z,99930.94
2022-11-20T00:08:56.760Z,99933.50
2022-11-20T00:11:25.558Z,99933.59
2022-11-20T00:13:54.695Z,99925.03
2022-11-20T00:16:25.040Z,99917.31
2022-11-20T00:18:52.508Z,99922.41
2022-11-20T00:21:24.101Z,99910.38
2022-11-20T00:23:53.146Z,99919.78
2022-11-20T00:26:22.809Z,99921.50
2022-11-20T00:28:57.762Z,99925.75
2022-11-20T00:31:24.666Z,99923.97
2022-11-20T00:33:51.678Z,99925.66
2022-11-20T00:36:20.534Z,99923.91
2022-11-20T00:38:47.415Z,99926.59
2022-11-20T00:41:16.522Z,99926.69
2022-11-20T00:43:43.845Z,99931.03
2022-11-20T00:46:16.409Z,99933.63
2022-11-20T00:48:43.435Z,99937.03
2022-11-20T00:51:12.279Z,99941.34
2022-11-20T00:53:38.836Z,99944.75
2022-11-20T00:56:08.241Z,99941.28
2022-11-20T00:58:37.922Z,99947.25
2022-11-20T01:01:05.709Z,99948.16
2022-11-20T01:03:37.348Z,99942.13
2022-11-20T01:06:06.415Z,99940.47
2022-11-20T01:08:34.590Z,99934.41
2022-11-20T01:11:21.557Z,99942.13
2022-11-20T01:13:49.913Z,99944.72
2022-11-20T01:16:19.517Z,99942.16
2022-11-20T01:18:48.094Z,99939.66
2022-11-20T01:21:23.741Z,99937.00
2022-11-20T01:23:51.482Z,99939.59
2022-11-20T01:26:20.600Z,99934.47
2022-11-20T01:28:47.141Z,99938.72
2022-11-20T01:31:22.140Z,99934.44
2022-11-20T01:33:51.059Z,99937.00
2022-11-20T01:36:19.434Z,99933.56
2022-11-20T01:38:46.113Z,99931.84
2022-11-20T01:41:36.721Z,99932.66
2022-11-20T01:44:04.664Z,99932.72
2022-11-20T01:46:34.468Z,99919.81
2022-11-20T01:49:17.453Z,99917.16
2022-11-20T01:51:53.736Z,99924.06
2022-11-20T01:54:26.680Z,99920.66
2022-11-20T01:56:57.789Z,99925.00
2022-11-20T01:59:26.986Z,99922.44
2022-11-20T02:01:54.261Z,99919.06
2022-11-20T02:04:21.932Z,99918.19
2022-11-20T02:06:59.017Z,99914.78
2022-11-20T02:09:25.667Z,99919.06
2022-11-20T02:11:53.156Z,99919.06
2022-11-20T02:14:20.394Z,99917.34
2022-11-20T02:16:48.911Z,99912.16
2022-11-20T02:19:30.594Z,99905.28
2022-11-20T02:22:14.059Z,99899.34
2022-11-20T02:24:43.018Z,99895.94
2022-11-20T02:27:13.165Z,99895.88
2022-11-20T02:29:48.268Z,99891.53
2022-11-20T02:32:34.128Z,99888.91
2022-11-20T02:35:10.953Z,99894.91
2022-11-20T02:37:41.291Z,99885.53
2022-11-20T02:40:08.543Z,99898.41
2022-11-20T02:42:35.673Z,99896.69
2022-11-20T02:45:02.173Z,99901.88
2022-11-20T02:47:28.684Z,99891.63
2022-11-20T02:49:55.161Z,99895.03
2022-11-20T02:52:21.637Z,99895.03
2022-11-20T02:54:48.157Z,99894.19
2022-11-20T02:57:14.683Z,99894.22
2022-11-20T02:59:41.201Z,99892.50
2022-11-20T03:02:07.766Z,99890.78
2022-11-20T03:04:34.286Z,99893.38
2022-11-20T03:07:00.957Z,99889.94
2022-11-20T03:09:27.526Z,99895.09
2022-11-20T03:11:54.192Z,99892.50
2022-11-20T03:14:20.740Z,99897.69
2022-11-20T03:16:47.208Z,99894.22
2022-11-20T03:19:14.509Z,99895.94
2022-11-20T03:21:41.185Z,99893.38
2022-11-20T03:24:07.930Z,99883.94
2022-11-20T03:26:34.640Z,99885.66
2022-11-20T03:29:03.616Z,99885.66
2022-11-20T03:31:33.413Z,99883.94
2022-11-20T03:34:00.866Z,99882.22
2022-11-20T03:36:28.344Z,99878.78
2022-11-20T03:38:56.205Z,99879.66
2022-11-20T03:41:25.717Z,99869.34
2022-11-20T03:44:01.799Z,99875.34
2022-11-20T03:46:28.817Z,99880.47
2022-11-20T03:48:55.839Z,99883.88
2022-11-20T03:51:23.397Z,99884.72
2022-11-20T03:53:51.827Z,99878.75
2022-11-20T03:56:21.203Z,99880.47
2022-11-20T03:58:47.715Z,99883.91
2022-11-20T04:01:19.513Z,99887.38
2022-11-20T04:03:46.856Z,99883.09
2022-11-20T04:06:16.448Z,99880.50
2022-11-20T04:08:43.303Z,99878.78
2022-11-20T04:11:10.748Z,99873.63
2022-11-20T04:13:37.676Z,99875.38
2022-11-20T04:16:05.184Z,99871.06
2022-11-20T04:18:31.753Z,99872.78
2022-11-20T04:20:58.857Z,99860.81
2022-11-20T04:23:28.674Z,99862.50
2022-11-20T04:25:55.735Z,99865.91
2022-11-20T04:28:22.206Z,99856.47
2022-11-20T04:30:48.717Z,99855.59
2022-11-20T04:33:15.221Z,99849.59
2022-11-20T04:35:41.734Z,99845.28
2022-11-20T04:38:08.239Z,99848.72
2022-11-20T04:40:34.715Z,99846.16
2022-11-20T04:43:01.225Z,99842.78
2022-11-20T04:45:27.688Z,99840.22
2022-11-20T04:47:54.185Z,99843.63
2022-11-20T04:50:20.727Z,99841.94
2022-11-20T04:52:47.197Z,99848.81
2022-11-20T04:55:13.678Z,99843.66
2022-11-20T04:57:40.391Z,99848.81
2022-11-20T05:00:07.941Z,99854.81
2022-11-20T05:02:34.486Z,99847.94
2022-11-20T05:05:00.955Z,99861.66
2022-11-20T05:07:27.491Z,99855.66
2022-11-20T05:09:54.038Z,99853.94
2022-11-20T05:12:20.583Z,99871.06
2022-11-20T05:14:47.057Z,99859.94
2022-11-20T05:17:13.775Z,99859.94
2022-11-20T05:19:40.267Z,99849.66
2022-11-20T05:22:06.738Z,99844.50
2022-11-20T05:24:33.214Z,99854.78
2022-11-20T05:26:59.714Z,99854.78
2022-11-20T05:29:26.174Z,99849.66
2022-11-20T05:31:52.655Z,99853.94
2022-11-20T05:34:19.130Z,99851.38
2022-11-20T05:36:45.596Z,99846.22
2022-11-20T05:39:12.119Z,99851.38
2022-11-20T05:41:38.611Z,99837.63
2022-11-20T05:44:05.301Z,99842.78
2022-11-20T05:46:31.859Z,99840.22
2022-11-20T05:48:59.251Z,99836.78
2022-11-20T05:51:26.498Z,99851.34
2022-11-20T05:53:53.013Z,99848.81
2022-11-20T05:56:21.574Z,99841.06
2022-11-20T05:58:49.426Z,99836.78
2022-11-20T06:01:26.486Z,99842.81
2022-11-20T06:03:54.746Z,99832.53
2022-11-20T06:06:21.852Z,99835.09
2022-11-20T06:08:48.859Z,99832.50
2022-11-20T06:11:16.509Z,99836.81
2022-11-20T06:13:43.561Z,99833.34
2022-11-20T06:16:12.052Z,99826.53
2022-11-20T06:18:39.189Z,99833.38
2022-11-20T06:21:07.250Z,99827.34
2022-11-20T06:23:35.258Z,99824.78
2022-11-20T06:26:03.798Z,99832.50
2022-11-20T06:28:30.393Z,99823.94
2022-11-20T06:30:56.880Z,99829.94
2022-11-20T06:33:23.365Z,99821.38
2022-11-20T06:35:49.834Z,99828.25
2022-11-20T06:38:16.287Z,99822.25
2022-11-20T06:40:43.623Z,99823.94
2022-11-20T06:43:13.106Z,99832.53
2022-11-20T06:45:39.607Z,99825.66
2022-11-20T06:48:06.231Z,99817.94
2022-11-20T06:50:32.754Z,99829.94
2022-11-20T06:53:03.398Z,99824.81
2022-11-20T06:55:30.219Z,99815.38
2022-11-20T06:57:56.686Z,99814.47
2022-11-20T07:00:23.186Z,99813.63
2022-11-20T07:02:49.715Z,99811.91
2022-11-20T07:05:16.499Z,99809.31
2022-11-20T07:07:43.286Z,99811.03
2022-11-20T07:10:10.820Z,99823.03
2022-11-20T07:12:37.317Z,99818.78
2022-11-20T07:15:04.129Z,99819.63
2022-11-20T07:17:30.671Z,99812.75
2022-11-20T07:19:57.189Z,99814.44
2022-11-20T07:22:26.246Z,99801.59
2022-11-20T07:24:52.721Z,99807.59
2022-11-20T07:27:19.212Z,99810.09
2022-11-20T07:29:45.712Z,99802.38
2022-11-20T07:32:12.219Z,99813.50
2022-11-20T07:34:40.675Z,99809.22
2022-11-20T07:37:10.321Z,99805.78
2022-11-20T07:39:37.066Z,99804.03
2022-11-20T07:42:03.868Z,99807.53
2022-11-20T07:44:32.677Z,99806.66
2022-11-20T07:46:59.183Z,99798.97
2022-11-20T07:49:25.627Z,99801.53
2022-11-20T07:51:58.273Z,99800.63
2022-11-20T07:54:27.369Z,99795.44
2022-11-20T07:56:54.958Z,99799.69
2022-11-20T07:59:21.593Z,99800.44
2022-11-20T08:01:48.355Z,99790.13
2022-11-20T08:04:17.085Z,99784.97
2022-11-20T08:06:43.797Z,99790.19
2022-11-20T08:09:10.646Z,99790.97
2022-11-20T08:11:55.586Z,99789.19
2022-11-20T08:14:22.033Z,99786.75
2022-11-20T08:16:50.424Z,99786.72
2022-11-20T08:19:18.991Z,99792.59
2022-11-20T08:21:45.851Z,99798.63
2022-11-20T08:24:12.681Z,99794.41
2022-11-20T08:26:40.471Z,99785.75
2022-11-20T08:29:06.987Z,99786.56
2022-11-20T08:31:33.499Z,99788.25
2022-11-20T08:34:00.076Z,99777.81
2022-11-20T08:36:26.796Z,99779.44
2022-11-20T08:38:55.537Z,99784.44
2022-11-20T08:41:26.346Z,99782.69
2022-11-20T08:44:00.924Z,99779.09
2022-11-20T08:46:31.763Z,99780.69
2022-11-20T08:48:58.267Z,99779.00
2022-11-20T08:51:24.759Z,99766.84
2022-11-20T08:53:51.298Z,99759.03
2022-11-20T08:56:18.686Z,99766.69
2022-11-20T08:59:16.120Z,99757.22
2022-11-20T09:01:32.062Z,99752.03
2022-11-20T09:04:00.452Z,99744.16
2022-11-20T09:06:27.171Z,99745.91
2022-11-20T09:08:54.771Z,99736.44
2022-11-20T09:11:21.942Z,99737.97
2022-11-20T09:13:48.420Z,99736.03
2022-11-20T09:16:15.137Z,99728.19
2022-11-20T09:18:41.654Z,99729.06
2022-11-20T09:21:13.789Z,99730.78
2022-11-20T09:23:40.736Z,99728.09
2022-11-20T09:26:11.511Z,99728.78
2022-11-20T09:28:39.536Z,99726.31
2022-11-20T09:31:07.721Z,99726.25
2022-11-20T09:33:34.381Z,99730.34
2022-11-20T09:36:00.928Z,99727.47
2022-11-20T09:38:27.512Z,99732.59
2022-11-20T09:41:05.948Z,99726.38
2022-11-20T09:43:47.630Z,99725.41
2022-11-20T09:46:28.253Z,99730.44
2022-11-20T09:49:21.280Z,99729.53
2022-11-20T09:51:51.112Z,99729.69
2022-11-20T09:54:23.675Z,99728.69
2022-11-20T09:56:56.085Z,99736.34
2022-11-20T09:59:45.330Z,99733.66
2022-11-20T10:02:29.637Z,99725.84
2022-11-20T10:05:19.294Z,99720.41
2022-11-20T10:07:56.637Z,99715.94
2022-11-20T10:10:31.946Z,99713.34
2022-11-20T10:13:10.663Z,99704.56
2022-11-20T10:16:47.580Z,99706.03
2022-11-20T10:19:32.070Z,99706.81
2022-11-20T10:22:15.568Z,99703.19
2022-11-20T10:24:47.466Z,99691.00
2022-11-20T10:27:24.296Z,99676.97
2022-11-20T10:30:12.552Z,99674.22
2022-11-20T10:32:39.981Z,99670.91
2022-11-20T10:35:21.975Z,99684.31
2022-11-20T10:37:56.093Z,99674.66
2022-11-20T10:40:47.181Z,99670.97
2022-11-20T10:43:27.513Z,99684.34
2022-11-20T10:46:03.215Z,99679.66
2022-11-20T10:48:32.574Z,99690.09
2022-11-20T10:51:25.257Z,99689.38
2022-11-20T10:53:59.694Z,99678.88
2022-11-20T10:56:30.645Z,99674.81
2022-11-20T10:59:15.333Z,99667.53
2022-11-20T11:01:44.885Z,99659.28
2022-11-20T11:04:33.953Z,99668.50
2022-11-20T11:07:10.673Z,99666.34
2022-11-20T11:09:43.847Z,99662.34
2022-11-20T11:12:11.358Z,99659.81
2022-11-20T11:14:52.182Z,99650.06
2022-11-20T11:17:28.206Z,99648.78
2022-11-20T11:20:22.282Z,99651.09
2022-11-20T11:22:51.848Z,99647.91
2022-11-20T11:25:22.909Z,99645.00
2022-11-20T11:27:51.053Z,99643.88
2022-11-20T11:30:19.996Z,99635.25
2022-11-20T11:32:46.645Z,99637.66
2022-11-20T11:35:27.133Z,99627.47
2022-11-20T11:38:03.193Z,99626.81
2022-11-20T11:40:31.941Z,99631.47
2022-11-20T11:43:02.034Z,99624.72
2022-11-20T11:45:29.245Z,99613.47
2022-11-20T11:47:59.379Z,99615.88
2022-11-20T11:50:28.051Z,99603.88
2022-11-20T11:53:18.826Z,99608.09
2022-11-20T11:55:50.902Z,99599.41
2022-11-20T11:58:46.189Z,99598.31
2022-11-20T12:01:15.742Z,99597.34
2022-11-20T12:03:43.949Z,99590.44
2022-11-20T12:06:14.910Z,99596.72
2022-11-20T12:09:13.137Z,99591.47
2022-11-20T12:11:52.523Z,99588.88
2022-11-20T12:14:38.605Z,99585.34
2022-11-20T12:17:05.953Z,99588.56
2022-11-20T12:19:35.447Z,99587.63
2022-11-20T12:22:20.372Z,99583.19
2022-11-20T12:25:09.850Z,99582.50
2022-11-20T12:27:57.918Z,99588.63
2022-11-20T12:30:25.732Z,99595.00
2022-11-20T12:32:55.074Z,99596.75
2022-11-20T12:35:24.683Z,99598.34
2022-11-20T12:38:16.817Z,99597.03
2022-11-20T12:41:05.639Z,99599.34
2022-11-20T12:43:58.757Z,99599.72
2022-11-20T12:46:48.929Z,99593.69
2022-11-20T12:49:39.050Z,99590.06
2022-11-20T12:52:40.472Z,99579.97
2022-11-20T12:55:33.123Z,99586.03
2022-11-20T12:58:28.884Z,99578.97
2022-11-20T13:01:44.573Z,99581.66
2022-11-20T13:04:27.122Z,99577.31
2022-11-20T13:06:55.137Z,99571.16
2022-11-20T13:09:23.556Z,99586.94
2022-11-20T13:11:52.876Z,99581.09
2022-11-20T13:14:33.413Z,99581.78
2022-11-20T13:17:06.076Z,99571.25
2022-11-20T13:19:34.148Z,99573.22
2022-11-20T13:22:00.885Z,99562.78
2022-11-20T13:24:31.212Z,99554.22
2022-11-20T13:27:05.020Z,99559.97
2022-11-20T13:29:33.005Z,99557.38
2022-11-20T13:32:21.234Z,99555.03
2022-11-20T13:34:55.387Z,99549.69
2022-11-20T13:37:40.246Z,99547.56
2022-11-20T13:40:09.445Z,99546.81
2022-11-20T13:42:44.818Z,99548.28
2022-11-20T13:45:25.321Z,99549.19
2022-11-20T13:47:53.837Z,99553.66
2022-11-20T13:50:29.070Z,99553.38
2022-11-20T13:52:55.517Z,99554.63
2022-11-20T13:55:37.773Z,99550.88
2022-11-20T13:58:39.275Z,99547.59
2022-11-20T14:01:15.318Z,99559.19
2022-11-20T14:04:04.986Z,99566.00
2022-11-20T14:06:35.518Z,99563.50
2022-11-20T14:09:02.210Z,99559.34
2022-11-20T14:11:30.871Z,99565.25
2022-11-20T14:14:11.906Z,99552.22
2022-11-20T14:16:38.483Z,99558.47
2022-11-20T14:19:26.777Z,99560.38
2022-11-20T14:22:07.159Z,99557.03
2022-11-20T14:24:33.941Z,99553.69
2022-11-20T14:27:00.743Z,99547.94
2022-11-20T14:29:35.893Z,99552.75
2022-11-20T14:32:04.542Z,99551.97
2022-11-20T14:34:36.583Z,99554.69
2022-11-20T14:37:06.592Z,99560.59
2022-11-20T14:39:37.273Z,99556.34
2022-11-20T14:42:21.554Z,99557.69
2022-11-20T14:44:53.572Z,99559.69
2022-11-20T14:47:26.170Z,99549.50
2022-11-20T14:49:54.320Z,99550.78
2022-11-20T14:52:25.622Z,99546.66
2022-11-20T14:54:57.331Z,99537.47
2022-11-20T14:57:28.285Z,99544.59
2022-11-20T15:00:24.627Z,99538.78
2022-11-20T15:02:52.682Z,99535.06
2022-11-20T15:05:25.875Z,99541.50
2022-11-20T15:08:13.585Z,99540.66
2022-11-20T15:10:46.089Z,99535.75
2022-11-20T15:13:15.689Z,99533.16
2022-11-20T15:15:47.645Z,99534.28
2022-11-20T15:18:17.556Z,99531.84
2022-11-20T15:20:44.529Z,99532.03
2022-11-20T15:23:13.484Z,99535.34
2022-11-20T15:25:41.674Z,99530.41
2022-11-20T15:28:20.775Z,99533.53
2022-11-20T15:30:49.537Z,99531.13
2022-11-20T15:33:17.374Z,99520.50
2022-11-20T15:35:45.182Z,99530.31
2022-11-20T15:38:11.997Z,99533.66
2022-11-20T15:40:38.492Z,99518.91
2022-11-20T15:43:12.573Z,99524.75
2022-11-20T15:45:46.859Z,99531.06
2022-11-20T15:48:25.909Z,99533.84
2022-11-20T15:51:04.205Z,99521.91
2022-11-20T15:53:30.792Z,99527.06
2022-11-20T15:55:57.364Z,99519.50
2022-11-20T15:58:25.139Z,99525.97
2022-11-20T16:00:51.869Z,99533.91
2022-11-20T16:03:21.881Z,99528.75
2022-11-20T16:05:48.433Z,99527.06
2022-11-20T16:08:15.708Z,99528.66
2022-11-20T16:10:46.089Z,99524.97
2022-11-20T16:13:36.098Z,99530.66
2022-11-20T16:16:06.238Z,99527.28
2022-11-20T16:18:33.108Z,99525.34
2022-11-20T16:20:59.833Z,99531.38
2022-11-20T16:23:26.317Z,99531.16
2022-11-20T16:25:52.995Z,99540.50
2022-11-20T16:28:19.607Z,99541.41
2022-11-20T16:30:46.829Z,99535.53
2022-11-20T16:33:18.246Z,99539.84
2022-11-20T16:35:44.957Z,99543.44
2022-11-20T16:38:11.477Z,99540.78
2022-11-20T16:40:37.948Z,99542.63
2022-11-20T16:43:11.517Z,99551.47
2022-11-20T16:45:45.540Z,99544.88
2022-11-20T16:48:16.645Z,99538.91
2022-11-20T16:50:48.400Z,99553.72
2022-11-20T16:53:14.972Z,99557.31
2022-11-20T16:55:41.608Z,99549.75
2022-11-20T16:58:08.140Z,99546.41
2022-11-20T17:00:39.972Z,99543.63
2022-11-20T17:03:06.934Z,99535.16
2022-11-20T17:05:34.822Z,99536.44
2022-11-20T17:08:01.537Z,99542.44
2022-11-20T17:10:28.121Z,99553.78
2022-11-20T17:12:54.662Z,99550.66
2022-11-20T17:15:21.222Z,99557.53
2022-11-20T17:17:47.679Z,99552.22
2022-11-20T17:20:14.196Z,99549.63
2022-11-20T17:22:40.719Z,99539.28
2022-11-20T17:25:07.583Z,99536.44
2022-11-20T17:27:34.055Z,99532.34
2022-11-20T17:30:00.612Z,99540.53
2022-11-20T17:32:27.117Z,99539.13
2022-11-20T17:34:53.680Z,99533.78
2022-11-20T17:37:20.161Z,99528.88
2022-11-20T17:39:46.878Z,99526.97
2022-11-20T17:42:29.453Z,99526.53
2022-11-20T17:44:58.674Z,99538.06
2022-11-20T17:47:25.987Z,99533.38
2022-11-20T17:49:53.601Z,99532.88
2022-11-20T17:52:20.367Z,99532.34
2022-11-20T17:54:46.874Z,99530.88
2022-11-20T17:57:32.019Z,99531.88
2022-11-20T17:59:58.545Z,99527.69
2022-11-20T18:02:25.078Z,99526.88
2022-11-20T18:04:51.589Z,99522.59
2022-11-20T18:07:18.126Z,99520.91
2022-11-20T18:09:44.855Z,99512.75
2022-11-20T18:12:11.411Z,99510.78
2022-11-20T18:14:37.952Z,99509.56
2022-11-20T18:17:07.930Z,99506.13
2022-11-20T18:19:44.688Z,99501.69
2022-11-20T18:22:19.831Z,99503.63
2022-11-20T18:24:46.398Z,99504.28
2022-11-20T18:27:19.345Z,99504.63
2022-11-20T18:29:48.965Z,99505.56
2022-11-20T18:32:15.527Z,99509.41
2022-11-20T18:34:42.037Z,99514.31
2022-11-20T18:37:09.825Z,99505.91
2022-11-20T18:39:36.852Z,99509.63
2022-11-20T18:42:22.193Z,99513.44
2022-11-20T18:44:51.401Z,99503.19
2022-11-20T18:47:19.342Z,99500.13
2022-11-20T18:49:51.257Z,99504.78
2022-11-20T18:52:23.436Z,99496.53
2022-11-20T18:54:50.837Z,99499.53
2022-11-20T18:57:20.041Z,99487.06
2022-11-20T18:59:46.804Z,99497.38
2022-11-20T19:02:15.719Z,99490.59
2022-11-20T19:04:42.536Z,99486.13
2022-11-20T19:07:12.072Z,99490.81
2022-11-20T19:09:43.706Z,99484.88
2022-11-20T19:12:12.117Z,99496.28
2022-11-20T19:14:38.834Z,99494.03
2022-11-20T19:17:06.884Z,99497.69
2022-11-20T19:19:36.596Z,99491.78
2022-11-20T19:22:04.116Z,99483.44
2022-11-20T19:24:30.610Z,99481.22
2022-11-20T19:26:57.220Z,99486.31
2022-11-20T19:29:25.041Z,99474.81
2022-11-20T19:31:51.912Z,99478.09
2022-11-20T19:34:18.441Z,99480.50
2022-11-20T19:36:45.261Z,99484.50
2022-11-20T19:39:12.421Z,99466.44
2022-11-20T19:41:40.437Z,99463.97
2022-11-20T19:44:14.956Z,99465.28
2022-11-20T19:46:42.205Z,99467.78
2022-11-20T19:49:11.421Z,99470.06
2022-11-20T19:51:39.849Z,99458.97
2022-11-20T19:54:06.606Z,99470.03
2022-11-20T19:56:34.186Z,99462.00
2022-11-20T19:59:01.760Z,99466.19
2022-11-20T20:01:30.995Z,99465.41
2022-11-20T20:04:02.543Z,99465.81
2022-11-20T20:06:30.080Z,99470.28
2022-11-20T20:08:59.417Z,99467.63
2022-11-20T20:11:28.122Z,99457.63
2022-11-20T20:13:56.053Z,99460.97
2022-11-20T20:16:24.186Z,99451.34
2022-11-20T20:18:58.253Z,99446.84
2022-11-20T20:21:25.091Z,99454.50
2022-11-20T20:23:54.136Z,99437.38
2022-11-20T20:26:23.022Z,99433.97
2022-11-20T20:28:50.072Z,99434.44
2022-11-20T20:31:21.783Z,99431.75
2022-11-20T20:33:48.671Z,99435.88
2022-11-20T20:36:18.010Z,99440.13
2022-11-20T20:38:58.261Z,99437.84
2022-11-20T20:41:25.062Z,99429.41
2022-11-20T20:44:10.928Z,99421.22
2022-11-20T20:46:37.500Z,99413.88
2022-11-20T20:49:04.165Z,99420.25
2022-11-20T20:51:30.834Z,99416.94
2022-11-20T20:53:57.415Z,99417.22
2022-11-20T20:56:29.286Z,99417.47
2022-11-20T20:58:55.839Z,99413.06
2022-11-20T21:01:24.291Z,99406.19
2022-11-20T21:03:50.900Z,99397.03
2022-11-20T21:06:17.475Z,99394.91
2022-11-20T21:08:44.795Z,99398.47
2022-11-20T21:11:18.312Z,99397.84
2022-11-20T21:13:46.635Z,99403.00
2022-11-20T21:16:15.012Z,99392.66
2022-11-20T21:18:41.608Z,99380.09
2022-11-20T21:21:30.055Z,99363.19
2022-11-20T21:23:56.876Z,99349.81
2022-11-20T21:26:23.433Z,99353.69
2022-11-20T21:28:50.154Z,99345.22
2022-11-20T21:31:24.864Z,99344.06
2022-11-20T21:33:52.786Z,99331.38
2022-11-20T21:36:24.753Z,99319.38
2022-11-20T21:38:53.899Z,99309.16
2022-11-20T21:41:20.709Z,99309.34
2022-11-20T21:44:09.174Z,99322.19
2022-11-20T21:46:38.192Z,99318.56
2022-11-20T21:49:05.268Z,99316.69
2022-11-20T21:51:32.037Z,99308.91
2022-11-20T21:53:59.035Z,99306.47
2022-11-20T21:56:26.673Z,99293.50
2022-11-20T21:58:54.839Z,99292.63
2022-11-20T22:01:30.012Z,99297.44
2022-11-20T22:03:59.167Z,99283.75
2022-11-20T22:06:27.145Z,99289.94
2022-11-20T22:08:53.712Z,99292.22
2022-11-20T22:11:21.810Z,99288.78
2022-11-20T22:14:07.322Z,99281.56
2022-11-20T22:16:37.995Z,99282.53
2022-11-20T22:19:05.875Z,99268.41
2022-11-20T22:21:32.742Z,99258.31
2022-11-20T22:23:59.653Z,99259.84
2022-11-20T22:26:28.584Z,99262.34
2022-11-20T22:28:57.200Z,99263.38
2022-11-20T22:31:26.286Z,99257.09
2022-11-20T22:33:53.485Z,99254.25
2022-11-20T22:36:23.022Z,99252.63
2022-11-20T22:38:49.965Z,99255.25
2022-11-20T22:41:27.370Z,99239.59
2022-11-20T22:43:58.400Z,99242.31
2022-11-20T22:46:26.623Z,99231.72
2022-11-20T22:48:55.052Z,99226.50
2022-11-20T22:51:24.090Z,99233.28
2022-11-20T22:53:51.535Z,99222.25
2022-11-20T22:56:18.703Z,99224.69
2022-11-20T22:58:47.710Z,99227.28
2022-11-20T23:01:32.501Z,99220.16
2022-11-20T23:04:01.269Z,99211.53
2022-11-20T23:06:28.468Z,99217.47
2022-11-20T23:08:55.562Z,99211.94
2022-11-20T23:11:25.113Z,99205.97
2022-11-20T23:13:59.454Z,99210.38
2022-11-20T23:16:29.048Z,99202.66
2022-11-20T23:18:58.115Z,99187.25
2022-11-20T23:21:25.465Z,99187.84
2022-11-20T23:23:54.167Z,99178.25
2022-11-20T23:26:22.773Z,99182.34
2022-11-20T23:28:49.462Z,99180.91
2022-11-20T23:31:16.665Z,99164.59
2022-11-20T23:33:45.721Z,99165.97
2022-11-20T23:36:13.351Z,99163.25
2022-11-20T23:38:40.542Z,99167.94
2022-11-20T23:41:07.431Z,99156.44
2022-11-20T23:43:34.467Z,99155.63
2022-11-20T23:46:03.233Z,99148.91
2022-11-20T23:48:31.967Z,99148.69
2022-11-20T23:50:58.905Z,99135.28
2022-11-20T23:53:26.111Z,99130.16
2022-11-20T23:55:56.980Z,99140.06
2022-11-20T23:58:29.797Z,99117.97
